Time;durP1;ratioP1;P1;durP2;ratioP2;P2;SDS_P1;SDS_P2;PMS_P1;PMS_P2;Temp;Humidity;BMP_temperature;BMP_pressure;BME280_temperature;BME280_humidity;BME280_pressure;Samples;Min_cycle;Max_cycle;Signal;HPM_P1;HPM_P2
2021/10/19 00:00:13;;;;;;;9.00;8.10;;;12.30;99.90;;;;;;4961147;28;20618;-66
2021/10/19 00:02:44;;;;;;;9.70;8.80;;;12.30;99.90;;;;;;4963352;28;20654;-67
2021/10/19 00:05:13;;;;;;;9.40;8.50;;;12.20;99.90;;;;;;4963606;28;20657;-66
2021/10/19 00:07:44;;;;;;;10.50;9.40;;;12.30;99.90;;;;;;4962196;28;21231;-66
2021/10/19 00:10:11;;;;;;;11.20;9.43;;;12.30;99.90;;;;;;4959450;28;20649;-65
2021/10/19 00:12:37;;;;;;;9.87;8.57;;;12.20;99.90;;;;;;4962644;28;20618;-66
2021/10/19 00:15:09;;;;;;;10.43;9.20;;;12.20;99.90;;;;;;4960778;28;20681;-65
2021/10/19 00:17:42;;;;;;;9.97;8.90;;;12.20;99.90;;;;;;4962868;28;21134;-71
2021/10/19 00:20:14;;;;;;;9.83;8.83;;;12.20;99.90;;;;;;4957856;28;21205;-66
2021/10/19 00:22:39;;;;;;;9.60;8.60;;;12.00;99.90;;;;;;4964483;28;21105;-66
2021/10/19 00:25:10;;;;;;;9.47;8.40;;;12.30;99.90;;;;;;4962685;28;20610;-65
2021/10/19 00:27:39;;;;;;;10.90;9.80;;;12.20;99.90;;;;;;4977701;28;20245;-65
2021/10/19 00:30:07;;;;;;;9.70;8.70;;;12.20;99.90;;;;;;4977101;28;21213;-66
2021/10/19 00:32:32;;;;;;;9.67;8.73;;;12.30;99.90;;;;;;4964124;28;20586;-68
2021/10/19 00:34:58;;;;;;;10.13;9.03;;;12.30;99.90;;;;;;4961745;28;21053;-65
2021/10/19 00:37:24;;;;;;;9.83;8.87;;;12.30;99.90;;;;;;4962432;28;20226;-66
2021/10/19 00:39:49;;;;;;;10.27;9.23;;;12.30;99.90;;;;;;4959512;28;20303;-66
2021/10/19 00:42:17;;;;;;;10.40;9.33;;;12.30;99.90;;;;;;4962677;28;20286;-67
2021/10/19 00:44:45;;;;;;;9.67;8.63;;;12.30;99.90;;;;;;4961044;28;20271;-65
2021/10/19 00:47:19;;;;;;;10.00;9.10;;;12.30;99.90;;;;;;4962692;28;20984;-66
2021/10/19 00:49:48;;;;;;;9.97;9.07;;;12.30;99.90;;;;;;4961486;28;21191;-67
2021/10/19 00:52:17;;;;;;;11.30;10.00;;;12.30;99.90;;;;;;4960317;28;20635;-66
2021/10/19 00:54:43;;;;;;;10.20;9.20;;;12.30;99.90;;;;;;4960002;28;20665;-68
2021/10/19 00:57:17;;;;;;;10.17;9.17;;;12.30;99.90;;;;;;4962356;28;20662;-67
2021/10/19 00:59:44;;;;;;;11.20;9.40;;;12.30;99.90;;;;;;4962770;28;20629;-66
2021/10/19 01:02:12;;;;;;;11.80;10.40;;;12.30;99.90;;;;;;4977502;28;20638;-66
2021/10/19 01:04:38;;;;;;;11.33;10.20;;;12.30;99.90;;;;;;4960298;28;20606;-66
2021/10/19 01:07:07;;;;;;;11.87;10.00;;;12.30;99.90;;;;;;4962073;28;20720;-67
2021/10/19 01:09:38;;;;;;;11.27;10.17;;;12.30;99.90;;;;;;4961449;28;20623;-65
2021/10/19 01:12:13;;;;;;;11.20;9.87;;;12.30;99.90;;;;;;4977823;28;21195;-66
2021/10/19 01:14:38;;;;;;;10.93;9.10;;;12.30;99.90;;;;;;4959260;28;20970;-65
2021/10/19 01:17:04;;;;;;;11.87;10.53;;;12.30;99.90;;;;;;4961976;28;20657;-66
2021/10/19 01:19:36;;;;;;;10.60;9.60;;;12.30;99.90;;;;;;4978025;28;20226;-66
2021/10/19 01:22:04;;;;;;;10.93;9.50;;;12.30;99.90;;;;;;4963007;28;20637;-68
2021/10/19 01:24:30;;;;;;;10.33;9.33;;;12.30;99.90;;;;;;4961822;28;20638;-68
2021/10/19 01:26:55;;;;;;;10.60;9.57;;;12.40;99.90;;;;;;4959626;28;20709;-65
2021/10/19 01:29:26;;;;;;;12.20;9.87;;;12.40;99.90;;;;;;4963373;28;20179;-66
2021/10/19 01:31:56;;;;;;;11.80;9.90;;;12.40;99.90;;;;;;4962361;28;20311;-65
2021/10/19 01:34:25;;;;;;;9.80;8.90;;;12.40;99.90;;;;;;4960344;28;21001;-68
2021/10/19 01:36:53;;;;;;;10.40;9.33;;;12.40;99.90;;;;;;4961165;28;21062;-66
2021/10/19 01:39:24;;;;;;;10.33;9.20;;;12.30;99.90;;;;;;4959937;28;21010;-66
2021/10/19 01:41:49;;;;;;;11.93;10.73;;;12.30;99.90;;;;;;4962051;28;20650;-67
2021/10/19 01:44:17;;;;;;;12.27;10.13;;;12.30;99.90;;;;;;4959710;28;20616;-65
2021/10/19 01:46:43;;;;;;;9.80;8.73;;;12.30;99.90;;;;;;4961382;28;20601;-67
2021/10/19 01:49:08;;;;;;;11.93;10.20;;;12.30;99.90;;;;;;4959966;28;20622;-66
2021/10/19 01:51:34;;;;;;;11.40;10.20;;;12.30;99.90;;;;;;4961395;28;20678;-65
2021/10/19 01:54:00;;;;;;;10.43;9.23;;;12.40;99.90;;;;;;4959360;28;20191;-66
2021/10/19 01:56:29;;;;;;;11.27;10.03;;;12.40;99.90;;;;;;4959658;28;20245;-65
2021/10/19 01:58:54;;;;;;;12.47;10.27;;;12.40;99.90;;;;;;4972770;28;20642;-66
2021/10/19 02:01:22;;;;;;;11.30;10.20;;;12.40;99.90;;;;;;4961072;28;20643;-67
2021/10/19 02:03:48;;;;;;;12.20;10.87;;;12.40;99.90;;;;;;4961462;28;20198;-66
2021/10/19 02:06:19;;;;;;;11.57;10.37;;;12.40;99.90;;;;;;4965842;28;20968;-68
2021/10/19 02:08:47;;;;;;;11.60;9.50;;;12.40;99.90;;;;;;4958455;28;20265;-66
2021/10/19 02:11:12;;;;;;;10.73;9.53;;;12.40;99.90;;;;;;4960195;28;20659;-67
2021/10/19 02:13:38;;;;;;;10.73;9.50;;;12.40;99.90;;;;;;4958343;28;20680;-66
2021/10/19 02:16:04;;;;;;;10.53;9.50;;;12.40;99.90;;;;;;4961801;28;20301;-67
2021/10/19 02:18:29;;;;;;;11.17;10.07;;;12.40;99.90;;;;;;4959313;28;20569;-66
2021/10/19 02:21:00;;;;;;;11.13;9.97;;;12.40;99.90;;;;;;4959854;28;20232;-69
2021/10/19 02:23:26;;;;;;;11.97;10.60;;;12.50;99.90;;;;;;4959861;28;20652;-67
2021/10/19 02:25:54;;;;;;;13.07;11.13;;;12.50;99.90;;;;;;4961425;28;20859;-67
2021/10/19 02:28:20;;;;;;;11.60;10.40;;;12.50;99.90;;;;;;4960625;28;20198;-67
2021/10/19 02:30:49;;;;;;;11.10;9.73;;;12.50;99.90;;;;;;4960112;28;21181;-67
2021/10/19 02:33:15;;;;;;;11.57;10.40;;;12.50;99.90;;;;;;4972028;28;20353;-68
2021/10/19 02:35:45;;;;;;;13.80;11.00;;;12.50;99.90;;;;;;4960626;28;21012;-67
2021/10/19 02:38:10;;;;;;;12.43;10.60;;;12.50;99.90;;;;;;4957879;28;20690;-69
2021/10/19 02:40:45;;;;;;;13.47;11.97;;;12.50;99.90;;;;;;4956651;28;21044;-66
2021/10/19 02:43:18;;;;;;;12.57;11.23;;;12.40;99.90;;;;;;4958037;28;20640;-68
2021/10/19 02:45:43;;;;;;;12.60;10.27;;;12.40;99.90;;;;;;4959468;28;20639;-65
2021/10/19 02:48:09;;;;;;;13.00;11.23;;;12.40;99.90;;;;;;4958799;28;20611;-65
2021/10/19 02:50:34;;;;;;;11.97;10.83;;;12.40;99.90;;;;;;4957748;28;20229;-65
2021/10/19 02:53:00;;;;;;;12.77;11.33;;;12.50;99.90;;;;;;4960620;28;20317;-65
2021/10/19 02:55:28;;;;;;;13.23;11.70;;;12.40;99.90;;;;;;4954097;28;20246;-68
2021/10/19 02:57:54;;;;;;;18.17;12.03;;;12.50;99.90;;;;;;4957534;28;20226;-64
2021/10/19 03:00:24;;;;;;;12.40;11.20;;;12.50;99.90;;;;;;4955987;28;20622;-65
2021/10/19 03:02:52;;;;;;;16.30;12.77;;;12.50;99.90;;;;;;4960696;28;20732;-66
2021/10/19 03:05:20;;;;;;;14.47;12.90;;;12.40;99.90;;;;;;4974351;28;20751;-65
2021/10/19 03:07:45;;;;;;;15.43;12.00;;;12.40;99.90;;;;;;4975375;28;20594;-66
2021/10/19 03:10:13;;;;;;;15.27;11.83;;;12.40;99.90;;;;;;4957521;28;20627;-68
2021/10/19 03:12:39;;;;;;;14.23;12.77;;;12.40;99.90;;;;;;4957987;28;20753;-65
2021/10/19 03:15:05;;;;;;;14.83;12.80;;;12.40;99.90;;;;;;4958486;28;20606;-66
2021/10/19 03:17:31;;;;;;;13.87;12.37;;;12.30;99.90;;;;;;4960053;28;20186;-66
2021/10/19 03:19:56;;;;;;;13.90;12.40;;;12.30;99.90;;;;;;4959022;28;21240;-67
2021/10/19 03:22:24;;;;;;;14.00;12.50;;;12.30;99.90;;;;;;4959781;28;20214;-66
2021/10/19 03:24:50;;;;;;;13.23;11.83;;;12.40;99.90;;;;;;4960825;28;20270;-65
2021/10/19 03:27:18;;;;;;;15.30;11.60;;;12.40;99.90;;;;;;4958381;28;20701;-65
2021/10/19 03:29:49;;;;;;;16.80;13.60;;;12.40;99.90;;;;;;4959512;28;20179;-65
2021/10/19 03:32:17;;;;;;;15.60;12.90;;;12.30;99.90;;;;;;4961632;28;20614;-67
2021/10/19 03:34:46;;;;;;;16.17;13.23;;;12.30;99.90;;;;;;4962513;28;20651;-66
2021/10/19 03:37:11;;;;;;;15.20;13.00;;;12.40;99.90;;;;;;4964378;28;20643;-65
2021/10/19 03:39:37;;;;;;;14.80;13.30;;;12.30;99.90;;;;;;4959362;28;21217;-66
2021/10/19 03:42:03;;;;;;;15.20;12.93;;;12.30;99.90;;;;;;4962250;28;20607;-66
2021/10/19 03:44:32;;;;;;;15.37;12.97;;;12.30;99.90;;;;;;4962551;28;20552;-66
2021/10/19 03:46:57;;;;;;;15.67;13.20;;;12.40;99.90;;;;;;4963115;28;20633;-65
2021/10/19 03:49:23;;;;;;;15.47;13.70;;;12.30;99.90;;;;;;4963293;28;20598;-66
2021/10/19 03:51:51;;;;;;;15.47;13.83;;;12.30;99.90;;;;;;4961928;28;20249;-67
2021/10/19 03:54:19;;;;;;;15.57;13.87;;;12.30;99.90;;;;;;4958467;28;20930;-66
2021/10/19 03:56:47;;;;;;;15.43;12.93;;;12.30;99.90;;;;;;4959760;28;20760;-68
2021/10/19 03:59:13;;;;;;;15.20;13.60;;;12.30;99.90;;;;;;4957946;28;21031;-67
2021/10/19 04:01:38;;;;;;;17.40;14.20;;;12.40;99.90;;;;;;4962892;28;20689;-66
2021/10/19 04:04:09;;;;;;;14.97;12.90;;;12.40;99.90;;;;;;4962832;28;20183;-66
2021/10/19 04:06:40;;;;;;;15.20;13.27;;;12.40;99.90;;;;;;4962990;28;20227;-68
2021/10/19 04:09:11;;;;;;;15.67;13.93;;;12.50;99.90;;;;;;4962068;28;20611;-67
2021/10/19 04:11:36;;;;;;;19.50;14.53;;;12.40;99.90;;;;;;4957191;28;20993;-66
2021/10/19 04:14:02;;;;;;;15.43;12.83;;;12.40;99.90;;;;;;4960513;28;20625;-66
2021/10/19 04:16:35;;;;;;;16.40;13.33;;;12.40;99.90;;;;;;4956745;28;20211;-68
2021/10/19 04:19:04;;;;;;;15.43;13.40;;;12.50;99.90;;;;;;4959973;28;20187;-67
2021/10/19 04:21:32;;;;;;;15.97;13.70;;;12.50;99.90;;;;;;4977545;28;20688;-66
2021/10/19 04:23:58;;;;;;;15.97;13.83;;;12.50;99.90;;;;;;4963448;28;21141;-66
2021/10/19 04:26:29;;;;;;;15.33;13.13;;;12.40;99.90;;;;;;4960232;28;20653;-66
2021/10/19 04:28:54;;;;;;;17.30;14.33;;;12.40;99.90;;;;;;4961300;28;20340;-67
2021/10/19 04:31:20;;;;;;;16.47;13.90;;;12.40;99.90;;;;;;4950556;28;20831;-65
2021/10/19 04:33:45;;;;;;;15.90;14.20;;;12.40;99.90;;;;;;4955088;28;20191;-68
2021/10/19 04:36:13;;;;;;;17.83;13.90;;;12.40;99.90;;;;;;4960099;28;20726;-66
2021/10/19 04:38:39;;;;;;;18.67;14.50;;;12.40;99.90;;;;;;4963490;28;20199;-66
2021/10/19 04:41:04;;;;;;;14.90;13.30;;;12.40;99.90;;;;;;4957933;28;20647;-66
2021/10/19 04:43:35;;;;;;;18.10;13.70;;;12.40;99.90;;;;;;4977085;28;20195;-67
2021/10/19 04:46:00;;;;;;;16.53;14.37;;;12.30;99.90;;;;;;4956451;28;20595;-66
2021/10/19 04:48:27;;;;;;;17.43;14.43;;;12.20;99.90;;;;;;4972901;28;20616;-66
2021/10/19 04:50:52;;;;;;;17.77;13.90;;;12.30;99.90;;;;;;4954547;28;20227;-66
2021/10/19 04:53:18;;;;;;;19.43;15.50;;;12.40;99.90;;;;;;4958884;28;20611;-66
2021/10/19 04:55:47;;;;;;;18.77;14.60;;;12.60;99.90;;;;;;4948955;28;20206;-66
2021/10/19 04:58:18;;;;;;;16.57;14.73;;;12.40;99.90;;;;;;4957808;28;20211;-67
2021/10/19 05:00:46;;;;;;;16.17;13.77;;;12.40;99.90;;;;;;4960886;28;20650;-66
2021/10/19 05:03:12;;;;;;;20.30;15.37;;;12.40;99.90;;;;;;4955164;28;20617;-70
2021/10/19 05:05:40;;;;;;;17.27;14.20;;;12.40;99.90;;;;;;4958876;28;21447;-69
2021/10/19 05:08:06;;;;;;;17.43;14.63;;;12.40;99.90;;;;;;4952682;28;21306;-71
2021/10/19 05:10:35;;;;;;;17.67;15.13;;;12.50;99.90;;;;;;4939420;28;20646;-70
2021/10/19 05:13:00;;;;;;;17.80;13.80;;;12.50;99.90;;;;;;4942265;28;20224;-68
2021/10/19 05:15:26;;;;;;;15.77;14.17;;;12.40;99.90;;;;;;4944907;28;20745;-65
2021/10/19 05:17:52;;;;;;;15.93;13.73;;;12.40;99.90;;;;;;4949550;28;20195;-67
2021/10/19 05:20:18;;;;;;;16.27;14.57;;;12.50;99.90;;;;;;4956948;28;21077;-71
2021/10/19 05:22:46;;;;;;;15.60;14.00;;;12.50;99.90;;;;;;4943691;28;20659;-66
2021/10/19 05:25:12;;;;;;;17.93;14.57;;;12.50;99.90;;;;;;4952580;28;20717;-67
2021/10/19 05:27:41;;;;;;;16.47;14.37;;;12.60;99.90;;;;;;4941813;28;20626;-69
2021/10/19 05:30:07;;;;;;;20.63;15.73;;;12.60;99.90;;;;;;4945078;28;21505;-67
2021/10/19 05:32:33;;;;;;;17.20;14.50;;;12.60;99.90;;;;;;4958369;28;20622;-72
2021/10/19 05:34:59;;;;;;;17.10;14.23;;;12.60;99.90;;;;;;4949461;28;22366;-67
2021/10/19 05:37:25;;;;;;;16.90;15.10;;;12.60;99.90;;;;;;4949747;28;20196;-67
2021/10/19 05:39:50;;;;;;;16.73;14.87;;;12.70;99.90;;;;;;4942118;28;20985;-66
2021/10/19 05:42:18;;;;;;;17.93;14.07;;;12.70;99.90;;;;;;4953569;28;20573;-67
2021/10/19 05:44:46;;;;;;;16.27;14.53;;;12.70;99.90;;;;;;4949926;28;20194;-66
2021/10/19 05:47:18;;;;;;;18.83;14.83;;;12.70;99.90;;;;;;4950275;28;20646;-66
2021/10/19 05:49:44;;;;;;;22.27;15.50;;;12.60;99.90;;;;;;4950914;28;20615;-71
2021/10/19 05:52:12;;;;;;;21.57;16.63;;;12.80;99.90;;;;;;4947980;28;20634;-67
2021/10/19 05:54:39;;;;;;;20.83;16.40;;;12.70;99.90;;;;;;4948328;28;20274;-72
2021/10/19 05:57:08;;;;;;;17.73;15.10;;;12.70;99.90;;;;;;4948341;28;20669;-66
2021/10/19 05:59:36;;;;;;;22.50;15.93;;;12.70;99.90;;;;;;4955422;28;20636;-68
2021/10/19 06:02:04;;;;;;;18.63;16.03;;;12.70;99.90;;;;;;4942212;28;20678;-69
2021/10/19 06:04:30;;;;;;;19.73;14.90;;;12.70;99.90;;;;;;4956972;28;20767;-66
2021/10/19 06:07:00;;;;;;;24.07;17.17;;;12.70;99.90;;;;;;4951250;28;20642;-69
2021/10/19 06:09:27;;;;;;;20.43;15.83;;;12.70;99.90;;;;;;4946699;28;20622;-71
2021/10/19 06:11:53;;;;;;;21.20;16.27;;;12.70;99.90;;;;;;4949169;28;20643;-67
2021/10/19 06:14:22;;;;;;;20.00;15.67;;;12.70;99.90;;;;;;4949886;28;21069;-66
2021/10/19 06:16:48;;;;;;;18.13;15.40;;;12.80;99.90;;;;;;4948245;28;20305;-66
2021/10/19 06:19:14;;;;;;;18.70;16.03;;;12.80;99.90;;;;;;4965501;28;20622;-69
2021/10/19 06:21:41;;;;;;;19.13;15.70;;;12.80;99.90;;;;;;4946539;28;20663;-68
2021/10/19 06:24:10;;;;;;;19.50;15.77;;;12.80;99.90;;;;;;4948693;28;20207;-67
2021/10/19 06:26:36;;;;;;;20.57;17.53;;;12.80;99.90;;;;;;4952896;28;21189;-67
2021/10/19 06:29:04;;;;;;;19.60;16.40;;;12.90;99.90;;;;;;4953222;28;20606;-66
2021/10/19 06:31:29;;;;;;;23.17;15.80;;;12.90;99.90;;;;;;4954230;28;20631;-71
2021/10/19 06:33:57;;;;;;;23.73;17.90;;;12.90;99.90;;;;;;4950904;28;20630;-66
2021/10/19 06:36:23;;;;;;;21.90;16.73;;;12.80;99.90;;;;;;4950488;28;20274;-71
2021/10/19 06:38:49;;;;;;;21.00;15.37;;;12.90;99.90;;;;;;4965411;28;20614;-68
2021/10/19 06:41:14;;;;;;;20.63;17.27;;;12.90;99.90;;;;;;4955617;28;20675;-72
2021/10/19 06:43:43;;;;;;;18.33;15.77;;;13.00;99.90;;;;;;4950864;28;20196;-66
2021/10/19 06:46:09;;;;;;;21.23;16.10;;;13.00;99.90;;;;;;4950034;28;20200;-67
2021/10/19 06:48:35;;;;;;;19.47;16.20;;;13.00;99.90;;;;;;4950454;28;20619;-71
2021/10/19 06:51:03;;;;;;;18.97;16.57;;;13.10;99.90;;;;;;4946757;28;20670;-66
2021/10/19 06:53:28;;;;;;;18.70;16.70;;;13.10;99.90;;;;;;4952449;28;20794;-66
2021/10/19 06:55:56;;;;;;;20.77;16.43;;;13.00;99.90;;;;;;4949584;28;20779;-67
2021/10/19 06:58:25;;;;;;;21.83;16.00;;;13.00;99.90;;;;;;4949505;28;20214;-72
2021/10/19 07:00:54;;;;;;;21.97;16.70;;;13.10;99.90;;;;;;4957142;28;20721;-66
2021/10/19 07:03:28;;;;;;;18.23;16.10;;;13.10;99.90;;;;;;4954444;28;20697;-68
2021/10/19 07:06:00;;;;;;;17.53;15.23;;;13.10;99.90;;;;;;4950643;28;21212;-67
2021/10/19 07:08:26;;;;;;;20.20;17.30;;;13.10;99.90;;;;;;4948404;28;20643;-68
2021/10/19 07:10:52;;;;;;;19.03;16.30;;;13.10;99.90;;;;;;4947606;28;20726;-67
2021/10/19 07:13:23;;;;;;;19.83;16.83;;;13.10;99.90;;;;;;4956224;28;20735;-66
2021/10/19 07:15:54;;;;;;;20.57;15.83;;;13.20;99.90;;;;;;4949615;28;20200;-67
2021/10/19 07:18:21;;;;;;;18.47;15.37;;;13.20;99.90;;;;;;4954999;28;20635;-69
2021/10/19 07:20:46;;;;;;;17.70;15.67;;;13.30;99.90;;;;;;4964286;28;20662;-66
2021/10/19 07:23:15;;;;;;;17.50;15.33;;;13.30;99.90;;;;;;4949064;28;21447;-70
2021/10/19 07:25:40;;;;;;;19.80;17.70;;;13.30;99.90;;;;;;4963773;28;20656;-67
2021/10/19 07:28:11;;;;;;;22.63;16.70;;;13.40;99.90;;;;;;4953020;28;20626;-71
2021/10/19 07:30:39;;;;;;;18.10;15.43;;;13.40;99.90;;;;;;4949268;28;20699;-66
2021/10/19 07:33:10;;;;;;;18.33;16.43;;;13.40;99.90;;;;;;4963796;28;21238;-70
2021/10/19 07:35:38;;;;;;;20.33;17.20;;;13.50;99.90;;;;;;4952584;28;20650;-70
2021/10/19 07:38:10;;;;;;;17.77;15.27;;;13.60;99.90;;;;;;4957079;28;20637;-68
2021/10/19 07:40:38;;;;;;;19.80;16.20;;;13.60;99.90;;;;;;4959983;28;20642;-68
2021/10/19 07:43:04;;;;;;;17.40;15.50;;;13.60;99.90;;;;;;4960537;28;20643;-73
2021/10/19 07:45:31;;;;;;;23.40;17.00;;;13.70;99.90;;;;;;4953298;28;21226;-69
2021/10/19 07:48:01;;;;;;;20.10;17.43;;;13.70;99.90;;;;;;4963472;28;20658;-66
2021/10/19 07:50:29;;;;;;;22.70;17.27;;;13.70;99.90;;;;;;4949615;28;20634;-68
2021/10/19 07:52:59;;;;;;;18.10;16.30;;;13.70;99.90;;;;;;4950312;28;20635;-67
2021/10/19 07:55:30;;;;;;;19.03;16.20;;;13.90;99.90;;;;;;4944937;28;20773;-66
2021/10/19 07:57:59;;;;;;;18.27;16.03;;;13.90;99.90;;;;;;4949910;28;20673;-66
2021/10/19 08:00:29;;;;;;;20.43;17.90;;;13.90;99.90;;;;;;4948944;28;20638;-70
2021/10/19 08:03:05;;;;;;;20.13;17.50;;;13.90;99.90;;;;;;4957651;28;20753;-66
2021/10/19 08:05:31;;;;;;;19.70;16.17;;;14.00;99.90;;;;;;4952394;28;20653;-67
2021/10/19 08:08:08;;;;;;;18.10;16.17;;;14.00;99.90;;;;;;4951645;28;20701;-66
2021/10/19 08:10:35;;;;;;;18.33;15.53;;;14.10;99.90;;;;;;4961119;28;20222;-71
2021/10/19 08:13:00;;;;;;;19.20;17.10;;;14.20;99.90;;;;;;4948503;28;20669;-70
2021/10/19 08:15:26;;;;;;;18.30;16.40;;;14.20;99.90;;;;;;4949341;28;20650;-66
2021/10/19 08:17:51;;;;;;;17.87;15.97;;;14.20;99.90;;;;;;4948554;28;20195;-67
2021/10/19 08:20:17;;;;;;;17.77;15.90;;;14.30;99.90;;;;;;4954379;28;20262;-71
2021/10/19 08:22:45;;;;;;;18.80;16.70;;;14.30;99.90;;;;;;4957913;28;20220;-66
2021/10/19 08:25:17;;;;;;;18.90;16.40;;;14.30;99.90;;;;;;4954677;28;20211;-67
2021/10/19 08:27:44;;;;;;;18.30;15.70;;;14.30;99.90;;;;;;4952590;28;21382;-70
2021/10/19 08:30:20;;;;;;;19.47;16.50;;;14.40;99.90;;;;;;4965765;28;20704;-67
2021/10/19 08:32:47;;;;;;;17.37;15.40;;;14.50;99.90;;;;;;4951965;28;21073;-67
2021/10/19 08:35:17;;;;;;;18.97;16.97;;;14.60;99.90;;;;;;4956176;28;21269;-69
2021/10/19 08:37:46;;;;;;;17.97;16.03;;;14.60;99.90;;;;;;4968177;28;20658;-67
2021/10/19 08:40:14;;;;;;;18.10;16.23;;;14.60;99.90;;;;;;4949474;28;21213;-69
2021/10/19 08:42:52;;;;;;;17.60;15.07;;;14.70;99.90;;;;;;4953436;28;20729;-67
2021/10/19 08:45:21;;;;;;;17.20;15.27;;;14.80;99.90;;;;;;4957908;28;20643;-71
2021/10/19 08:47:55;;;;;;;16.63;14.77;;;14.80;99.90;;;;;;4961416;28;20618;-71
2021/10/19 08:50:24;;;;;;;19.27;14.70;;;14.80;99.90;;;;;;4952293;28;20689;-68
2021/10/19 08:52:50;;;;;;;17.07;14.43;;;14.90;99.90;;;;;;4978482;28;20617;-69
2021/10/19 08:55:17;;;;;;;14.87;13.40;;;14.90;99.90;;;;;;4949375;28;20657;-71
2021/10/19 08:57:45;;;;;;;16.27;14.33;;;15.00;99.90;;;;;;4952512;28;21057;-66
2021/10/19 09:00:12;;;;;;;16.60;15.00;;;15.00;99.90;;;;;;4956124;28;21187;-67
2021/10/19 09:02:48;;;;;;;17.10;15.17;;;15.00;99.90;;;;;;4951123;28;20726;-68
2021/10/19 09:05:24;;;;;;;16.90;14.93;;;15.10;99.90;;;;;;4950086;28;20644;-69
2021/10/19 09:08:00;;;;;;;15.07;13.60;;;15.10;99.90;;;;;;4957347;28;20587;-70
2021/10/19 09:10:46;;;;;;;16.07;13.43;;;15.10;99.90;;;;;;4952087;28;20690;-68
2021/10/19 09:13:17;;;;;;;16.80;13.70;;;15.30;99.90;;;;;;4950153;28;21209;-69
2021/10/19 09:15:48;;;;;;;15.83;14.17;;;15.30;99.90;;;;;;4951469;28;21207;-67
2021/10/19 09:18:19;;;;;;;14.93;13.33;;;15.30;99.90;;;;;;4951142;28;21182;-67
2021/10/19 09:20:55;;;;;;;16.13;14.43;;;15.40;99.90;;;;;;4950738;28;20650;-67
2021/10/19 09:23:24;;;;;;;14.50;13.00;;;15.40;99.90;;;;;;4951819;28;20626;-68
2021/10/19 09:25:53;;;;;;;14.50;13.13;;;15.50;99.90;;;;;;4958953;28;20643;-67
2021/10/19 09:28:37;;;;;;;14.90;13.30;;;15.50;99.90;;;;;;4950280;28;21524;-67
2021/10/19 09:31:03;;;;;;;14.33;12.93;;;15.50;99.90;;;;;;4946763;28;21238;-68
2021/10/19 09:33:30;;;;;;;13.67;12.23;;;15.50;99.90;;;;;;4951385;28;20654;-69
2021/10/19 09:36:01;;;;;;;15.77;12.43;;;15.50;99.90;;;;;;4948918;28;20211;-68
2021/10/19 09:38:28;;;;;;;14.30;12.90;;;15.60;99.90;;;;;;4950204;28;20660;-68
2021/10/19 09:40:59;;;;;;;15.87;12.17;;;15.60;99.90;;;;;;4951273;28;20636;-67
2021/10/19 09:43:32;;;;;;;14.13;12.63;;;15.70;99.90;;;;;;4959521;28;20623;-68
2021/10/19 09:46:04;;;;;;;13.47;12.13;;;15.60;99.90;;;;;;4943552;28;20670;-66
2021/10/19 09:48:33;;;;;;;13.33;11.83;;;15.70;99.90;;;;;;4950924;28;20713;-67
2021/10/19 09:51:01;;;;;;;13.40;12.00;;;15.60;99.90;;;;;;4949965;28;20678;-70
2021/10/19 09:53:28;;;;;;;13.10;11.80;;;15.70;99.90;;;;;;4952334;28;20619;-66
2021/10/19 09:55:56;;;;;;;13.10;11.70;;;15.80;99.90;;;;;;4949014;28;21194;-70
2021/10/19 09:58:23;;;;;;;12.23;11.03;;;15.80;99.90;;;;;;4950614;28;21802;-72
2021/10/19 10:00:51;;;;;;;13.23;11.90;;;15.90;99.90;;;;;;4950329;28;20661;-66
2021/10/19 10:03:19;;;;;;;15.30;11.70;;;16.00;99.90;;;;;;4950036;28;20638;-67
2021/10/19 10:05:45;;;;;;;13.20;11.87;;;16.10;99.90;;;;;;4965241;28;21291;-70
2021/10/19 10:08:17;;;;;;;12.87;11.63;;;16.10;99.90;;;;;;4957929;28;20627;-67
2021/10/19 10:10:54;;;;;;;13.20;12.00;;;16.20;99.90;;;;;;4967748;28;20234;-72
2021/10/19 10:13:20;;;;;;;11.90;10.70;;;16.20;99.90;;;;;;4948146;28;20603;-66
2021/10/19 10:15:45;;;;;;;13.13;11.90;;;16.20;99.90;;;;;;4950631;28;20669;-67
2021/10/19 10:18:12;;;;;;;13.00;11.73;;;16.20;99.90;;;;;;4955864;28;20626;-70
2021/10/19 10:20:44;;;;;;;11.80;10.60;;;16.30;99.90;;;;;;4955647;28;20336;-67
2021/10/19 10:23:10;;;;;;;12.60;11.30;;;16.30;99.90;;;;;;4955391;28;20660;-67
2021/10/19 10:25:37;;;;;;;12.80;11.60;;;16.40;99.90;;;;;;4949431;28;20655;-67
2021/10/19 10:28:32;;;;;;;12.80;11.57;;;16.40;99.90;;;;;;4950338;28;20621;-67
2021/10/19 10:31:00;;;;;;;13.60;12.30;;;16.50;99.90;;;;;;4949851;28;20658;-69
2021/10/19 10:33:47;;;;;;;12.77;11.00;;;16.60;99.90;;;;;;4956811;28;20653;-67
2021/10/19 10:36:16;;;;;;;11.50;10.40;;;16.70;99.90;;;;;;4949430;28;20694;-68
2021/10/19 10:39:00;;;;;;;12.20;10.80;;;16.70;99.90;;;;;;4947387;28;21320;-69
2021/10/19 10:41:36;;;;;;;12.03;10.87;;;16.60;99.90;;;;;;4950819;28;20741;-68
2021/10/19 10:44:02;;;;;;;12.00;10.90;;;16.60;99.90;;;;;;4954853;28;20607;-66
2021/10/19 10:46:30;;;;;;;12.07;10.83;;;16.60;99.90;;;;;;4949537;28;21520;-68
2021/10/19 10:48:58;;;;;;;11.27;10.10;;;16.60;99.90;;;;;;4950060;28;21097;-68
2021/10/19 10:51:26;;;;;;;10.73;9.63;;;16.60;99.90;;;;;;4949372;28;21058;-72
2021/10/19 10:53:55;;;;;;;12.37;11.07;;;16.60;99.90;;;;;;4950701;28;20630;-72
2021/10/19 10:56:20;;;;;;;11.50;10.37;;;16.60;99.90;;;;;;4949701;28;21096;-67
2021/10/19 10:58:49;;;;;;;11.93;10.73;;;16.60;99.90;;;;;;4947529;28;20742;-69
2021/10/19 11:01:22;;;;;;;12.03;10.93;;;16.60;99.90;;;;;;4962592;28;20703;-73
2021/10/19 11:03:57;;;;;;;11.77;10.40;;;16.60;99.90;;;;;;4948599;28;20611;-70
2021/10/19 11:06:25;;;;;;;12.50;11.30;;;16.60;99.90;;;;;;4947507;28;20647;-67
2021/10/19 11:09:04;;;;;;;11.30;10.20;;;16.60;99.90;;;;;;4962955;28;20617;-70
2021/10/19 11:11:39;;;;;;;11.57;10.47;;;16.60;99.90;;;;;;4962990;28;20696;-67
2021/10/19 11:14:20;;;;;;;10.87;9.93;;;16.60;99.90;;;;;;4951473;28;20591;-69
2021/10/19 11:16:48;;;;;;;12.83;10.50;;;16.60;99.90;;;;;;4948911;28;20645;-70
2021/10/19 11:19:24;;;;;;;11.90;10.80;;;16.60;99.90;;;;;;4959460;28;20705;-70
2021/10/19 11:22:01;;;;;;;10.97;9.87;;;16.50;99.90;;;;;;4958564;28;21201;-66
2021/10/19 11:24:29;;;;;;;12.23;11.07;;;16.60;99.90;;;;;;4958950;28;20656;-67
2021/10/19 11:26:55;;;;;;;12.40;11.20;;;16.60;99.90;;;;;;4954558;28;21147;-71
2021/10/19 11:29:24;;;;;;;11.90;10.80;;;16.60;99.90;;;;;;4951363;28;20733;-66
2021/10/19 11:31:51;;;;;;;11.10;10.10;;;16.50;99.90;;;;;;4953627;28;20827;-68
2021/10/19 11:34:16;;;;;;;10.37;9.37;;;16.60;99.90;;;;;;4943076;28;20641;-67
2021/10/19 11:36:44;;;;;;;11.77;10.67;;;16.50;99.90;;;;;;4963866;28;20638;-67
2021/10/19 11:39:16;;;;;;;11.37;10.30;;;16.50;99.90;;;;;;4943888;28;20245;-66
2021/10/19 11:41:52;;;;;;;11.23;10.13;;;16.50;99.90;;;;;;4951797;28;20689;-66
2021/10/19 11:44:23;;;;;;;11.20;10.20;;;16.60;99.90;;;;;;4963409;28;20646;-68
2021/10/19 11:46:52;;;;;;;10.90;9.90;;;16.70;99.90;;;;;;4948820;28;20645;-66
2021/10/19 11:49:22;;;;;;;11.47;10.27;;;16.80;99.90;;;;;;4946957;28;20630;-67
2021/10/19 11:51:52;;;;;;;10.87;9.70;;;16.80;99.90;;;;;;4964075;28;20650;-67
2021/10/19 11:54:20;;;;;;;11.40;10.17;;;16.80;99.90;;;;;;4954429;28;20710;-67
2021/10/19 11:57:04;;;;;;;11.20;10.20;;;16.80;99.90;;;;;;4951528;28;20712;-66
2021/10/19 11:59:46;;;;;;;11.50;10.40;;;16.80;99.90;;;;;;4947312;28;21062;-66
2021/10/19 12:02:11;;;;;;;11.40;10.40;;;16.80;99.90;;;;;;4942086;28;21274;-68
2021/10/19 12:04:42;;;;;;;11.23;10.23;;;16.80;99.90;;;;;;4947935;28;20635;-67
2021/10/19 12:07:13;;;;;;;12.57;11.47;;;16.90;99.90;;;;;;4953784;28;20207;-67
2021/10/19 12:09:41;;;;;;;13.63;11.30;;;16.80;99.90;;;;;;4963454;28;20622;-71
2021/10/19 12:12:07;;;;;;;12.20;10.87;;;16.80;99.90;;;;;;4948092;28;20641;-67
2021/10/19 12:14:44;;;;;;;12.20;11.00;;;16.90;99.90;;;;;;4951944;28;21024;-67
2021/10/19 12:17:13;;;;;;;14.47;11.63;;;16.90;99.90;;;;;;4951473;28;20665;-68
2021/10/19 12:19:55;;;;;;;12.83;11.63;;;16.90;99.90;;;;;;4957896;28;21253;-66
2021/10/19 12:22:30;;;;;;;13.23;11.93;;;16.80;99.90;;;;;;4952261;28;21135;-69
2021/10/19 12:24:56;;;;;;;11.87;10.70;;;16.80;99.90;;;;;;4955326;28;20678;-66
2021/10/19 12:27:27;;;;;;;12.37;10.63;;;16.70;99.90;;;;;;4958685;28;20615;-67
2021/10/19 12:29:55;;;;;;;12.90;11.73;;;16.70;99.90;;;;;;4954293;28;20615;-68
2021/10/19 12:32:33;;;;;;;13.20;11.83;;;16.70;99.90;;;;;;4956733;28;20622;-67
2021/10/19 12:35:00;;;;;;;12.17;11.13;;;16.70;99.90;;;;;;4952630;28;20717;-67